Time;durP1;ratioP1;P1;durP2;ratioP2;P2;SDS_P1;SDS_P2;PMS_P1;PMS_P2;Temp;Humidity;BMP_temperature;BMP_pressure;BME280_temperature;BME280_humidity;BME280_pressure;Samples;Min_cycle;Max_cycle;Signal;HPM_P1;HPM_P2
2023/04/04 00:00:58;;;;;;;;;;;6.60;99.90;;;;;;4977495;28;19991;-63
2023/04/04 00:03:24;;;;;;;;;;;6.50;99.90;;;;;;4977660;28;19986;-61
2023/04/04 00:05:50;;;;;;;;;;;6.50;99.90;;;;;;4977511;28;20007;-60
2023/04/04 00:08:16;;;;;;;;;;;6.40;99.10;;;;;;4977558;28;19986;-62
2023/04/04 00:10:41;;;;;;;;;;;6.40;99.90;;;;;;4977414;28;20015;-62
2023/04/04 00:13:08;;;;;;;;;;;6.50;99.90;;;;;;4977480;28;19986;-63
2023/04/04 00:15:35;;;;;;;;;;;6.50;99.90;;;;;;4977553;28;20130;-63
2023/04/04 00:18:01;;;;;;;;;;;6.40;99.90;;;;;;4977347;28;19983;-63
2023/04/04 00:23:30;;;;;;;;;;;6.40;99.90;;;;;;4977220;28;20002;-62
2023/04/04 00:25:55;;;;;;;;;;;6.40;99.90;;;;;;4977436;28;20011;-64
2023/04/04 00:28:21;;;;;;;;;;;6.30;99.90;;;;;;4977194;28;19979;-63
2023/04/04 00:30:47;;;;;;;;;;;6.20;99.90;;;;;;4977066;28;19987;-63
2023/04/04 00:33:13;;;;;;;;;;;6.20;99.90;;;;;;4977074;28;20453;-62
2023/04/04 00:35:39;;;;;;;;;;;6.20;99.90;;;;;;4977064;28;19982;-61
2023/04/04 00:38:04;;;;;;;;;;;6.30;99.90;;;;;;4976947;28;19989;-62
2023/04/04 00:40:30;;;;;;;;;;;6.40;99.20;;;;;;4976958;28;19979;-63
2023/04/04 00:42:56;;;;;;;;;;;6.40;98.80;;;;;;4977277;28;20027;-61
2023/04/04 00:45:22;;;;;;;;;;;6.40;98.60;;;;;;4976860;28;20034;-61
2023/04/04 00:47:47;;;;;;;;;;;6.40;99.40;;;;;;4977018;28;20417;-62
2023/04/04 00:50:13;;;;;;;;;;;6.40;95.80;;;;;;4976849;28;20480;-63
2023/04/04 00:52:39;;;;;;;;;;;6.20;92.00;;;;;;4976934;28;20034;-61
2023/04/04 00:55:05;;;;;;;;;;;5.80;92.30;;;;;;4976985;28;19987;-61
2023/04/04 01:00:35;;;;;;;;;;;5.50;93.30;;;;;;4976784;28;20073;-61
2023/04/04 01:03:01;;;;;;;;;;;5.50;94.60;;;;;;4976480;28;20015;-61
2023/04/04 01:05:27;;;;;;;;;;;5.50;95.30;;;;;;4976541;28;19983;-63
2023/04/04 01:07:52;;;;;;;;;;;5.60;96.10;;;;;;4976345;28;20442;-63
2023/04/04 01:10:18;;;;;;;;;;;5.60;97.20;;;;;;4976376;28;19985;-62
2023/04/04 01:12:44;;;;;;;;;;;5.70;96.10;;;;;;4976081;28;20069;-61
2023/04/04 01:15:10;;;;;;;;;;;5.70;95.30;;;;;;4976355;28;20002;-63
2023/04/04 01:17:36;;;;;;;;;;;5.70;95.60;;;;;;4976541;28;19983;-62
2023/04/04 01:20:12;;;;;;;;;;;5.80;93.90;;;;;;4976522;28;20087;-63
2023/04/04 01:25:41;;;;;;;;;;;5.90;93.30;;;;;;4976014;28;20033;-63
2023/04/04 01:28:07;;;;;;;;;;;5.70;92.60;;;;;;4975919;28;19990;-62
2023/04/04 01:30:34;;;;;;;;;;;5.70;93.10;;;;;;4976112;28;20038;-60
2023/04/04 01:33:00;;;;;;;;;;;5.60;92.70;;;;;;4975998;28;19980;-61
2023/04/04 01:35:29;;;;;;;;;;;5.40;93.50;;;;;;4976108;28;19983;-62
2023/04/04 01:38:13;;;;;;;;;;;5.30;93.50;;;;;;4974971;28;20361;-60
2023/04/04 01:40:40;;;;;;;;;;;5.40;93.70;;;;;;4975870;28;20045;-61
2023/04/04 01:43:06;;;;;;;;;;;5.30;92.90;;;;;;4975676;28;19983;-62
2023/04/04 01:45:32;;;;;;;;;;;5.20;95.10;;;;;;4975826;28;20414;-61
2023/04/04 01:47:58;;;;;;;;;;;5.00;96.70;;;;;;4975854;28;20006;-62
2023/04/04 01:50:24;;;;;;;;;;;5.00;97.90;;;;;;4975793;28;19983;-62
2023/04/04 01:52:50;;;;;;;;;;;4.80;99.30;;;;;;4975730;28;19986;-62
2023/04/04 01:55:16;;;;;;;;;;;4.70;99.90;;;;;;4975589;28;19982;-62
2023/04/04 01:57:41;;;;;;;;;;;4.80;99.90;;;;;;4975579;28;19987;-60
2023/04/04 02:00:09;;;;;;;;;;;4.80;99.90;;;;;;4975633;28;19979;-61
2023/04/04 02:02:35;;;;;;;;;;;4.90;99.90;;;;;;4975514;28;19979;-61
2023/04/04 02:05:01;;;;;;;;;;;5.00;99.20;;;;;;4975581;28;20070;-61
2023/04/04 02:07:27;;;;;;;;;;;5.00;99.90;;;;;;4975443;28;20007;-61
2023/04/04 02:09:52;;;;;;;;;;;5.10;99.90;;;;;;4975314;28;19979;-60
2023/04/04 02:12:18;;;;;;;;;;;5.10;99.90;;;;;;4974713;28;20018;-62
2023/04/04 02:14:44;;;;;;;;;;;5.10;99.90;;;;;;4975278;28;19979;-62
2023/04/04 02:17:09;;;;;;;;;;;5.00;99.90;;;;;;4975340;28;19983;-62
2023/04/04 02:19:35;;;;;;;;;;;4.90;99.90;;;;;;4975440;28;20323;-61
2023/04/04 02:22:00;;;;;;;;;;;4.70;99.90;;;;;;4975332;28;19979;-62
2023/04/04 02:27:29;;;;;;;;;;;4.80;99.90;;;;;;4975362;28;20009;-63
2023/04/04 02:29:54;;;;;;;;;;;4.90;99.90;;;;;;4975046;28;19979;-63
2023/04/04 02:32:20;;;;;;;;;;;4.80;99.90;;;;;;4975098;28;20365;-61
2023/04/04 02:34:46;;;;;;;;;;;4.80;99.90;;;;;;4975049;28;20109;-61
2023/04/04 02:37:12;;;;;;;;;;;4.70;99.90;;;;;;4974997;28;20026;-63
2023/04/04 02:39:37;;;;;;;;;;;4.60;99.90;;;;;;4974869;28;20350;-63
2023/04/04 02:42:03;;;;;;;;;;;4.50;99.90;;;;;;4975326;28;20053;-61
2023/04/04 02:44:28;;;;;;;;;;;4.50;99.90;;;;;;4974962;28;20041;-63
2023/04/04 02:46:55;;;;;;;;;;;4.60;99.90;;;;;;4974852;28;20445;-62
2023/04/04 02:49:21;;;;;;;;;;;4.50;99.90;;;;;;4975074;28;19986;-62
2023/04/04 02:51:47;;;;;;;;;;;4.60;99.90;;;;;;4974966;28;19979;-61
2023/04/04 02:57:15;;;;;;;;;;;4.80;99.90;;;;;;4974834;28;20045;-61
2023/04/04 02:59:41;;;;;;;;;;;4.70;99.90;;;;;;4974874;28;19979;-61
2023/04/04 03:02:06;;;;;;;;;;;4.70;99.90;;;;;;4974843;28;20069;-59
2023/04/04 03:04:32;;;;;;;;;;;4.50;99.90;;;;;;4974814;28;20477;-60
2023/04/04 03:06:58;;;;;;;;;;;4.50;99.90;;;;;;4974827;28;20050;-62
2023/04/04 03:09:24;;;;;;;;;;;4.50;99.90;;;;;;4974711;28;20073;-60
2023/04/04 03:11:50;;;;;;;;;;;4.50;99.90;;;;;;4974569;28;20531;-61
2023/04/04 03:14:16;;;;;;;;;;;4.40;99.90;;;;;;4974965;28;19983;-63
2023/04/04 03:16:41;;;;;;;;;;;4.40;99.90;;;;;;4974695;28;19979;-61
2023/04/04 03:19:07;;;;;;;;;;;4.50;99.90;;;;;;4974652;28;19980;-61
2023/04/04 03:21:32;;;;;;;;;;;4.60;99.90;;;;;;4974664;28;20025;-63
2023/04/04 03:23:58;;;;;;;;;;;4.70;99.90;;;;;;4976201;28;19979;-61
2023/04/04 03:26:24;;;;;;;;;;;4.70;99.90;;;;;;4978362;28;20009;-60
2023/04/04 03:28:49;;;;;;;;;;;4.60;99.90;;;;;;4978259;28;20437;-61
2023/04/04 03:31:15;;;;;;;;;;;4.40;99.90;;;;;;4978329;28;19979;-62
2023/04/04 03:33:41;;;;;;;;;;;4.40;99.90;;;;;;4978151;28;19979;-61
2023/04/04 03:36:11;;;;;;;;;;;4.40;99.90;;;;;;4978118;28;20033;-61
2023/04/04 03:38:36;;;;;;;;;;;4.40;99.90;;;;;;4978167;28;20421;-61
2023/04/04 03:41:02;;;;;;;;;;;4.30;99.90;;;;;;4978351;28;19986;-62
2023/04/04 03:43:29;;;;;;;;;;;4.30;99.90;;;;;;4978028;28;19983;-63
2023/04/04 03:45:58;;;;;;;;;;;4.20;99.90;;;;;;4978190;28;19983;-62
2023/04/04 03:48:23;;;;;;;;;;;4.10;99.90;;;;;;4977860;28;19982;-61
2023/04/04 03:50:49;;;;;;;;;;;4.10;99.90;;;;;;4977866;28;19990;-60
2023/04/04 03:53:15;;;;;;;;;;;4.10;99.90;;;;;;4977706;28;20186;-62
2023/04/04 03:55:41;;;;;;;;;;;4.20;99.90;;;;;;4977822;28;19979;-61
2023/04/04 04:01:09;;;;;;;;;;;4.10;99.90;;;;;;4977975;28;19985;-60
2023/04/04 04:03:34;;;;;;;;;;;4.00;99.90;;;;;;4977594;28;20422;-62
2023/04/04 04:06:00;;;;;;;;;;;4.00;99.90;;;;;;4977687;28;20010;-60
2023/04/04 04:11:29;;;;;;;;;;;4.10;99.90;;;;;;4975743;28;20021;-62
2023/04/04 04:13:55;;;;;;;;;;;4.00;99.90;;;;;;4977431;28;19987;-61
2023/04/04 04:16:21;;;;;;;;;;;4.10;99.90;;;;;;4977337;28;19979;-63
2023/04/04 04:18:47;;;;;;;;;;;4.10;99.90;;;;;;4977417;28;20085;-61
2023/04/04 04:21:12;;;;;;;;;;;4.10;99.90;;;;;;4977262;28;19983;-63
2023/04/04 04:23:38;;;;;;;;;;;4.10;99.90;;;;;;4977525;28;19983;-63
2023/04/04 04:26:04;;;;;;;;;;;4.00;99.90;;;;;;4977086;28;20014;-61
2023/04/04 04:28:29;;;;;;;;;;;3.90;99.90;;;;;;4977171;28;19986;-62
2023/04/04 04:30:55;;;;;;;;;;;3.80;99.90;;;;;;4977119;28;20394;-62
2023/04/04 04:33:28;;;;;;;;;;;3.80;99.90;;;;;;4977110;28;19979;-60
2023/04/04 04:35:57;;;;;;;;;;;3.80;99.90;;;;;;4976849;28;19990;-61
2023/04/04 04:38:23;;;;;;;;;;;3.80;99.90;;;;;;4977038;28;20442;-63
2023/04/04 04:40:48;;;;;;;;;;;3.80;99.90;;;;;;4977268;28;20077;-60
2023/04/04 04:43:14;;;;;;;;;;;3.80;99.90;;;;;;4977179;28;20340;-61
2023/04/04 04:45:41;;;;;;;;;;;3.70;99.90;;;;;;4977135;28;19983;-62
2023/04/04 04:48:06;;;;;;;;;;;3.60;99.90;;;;;;4977106;28;20018;-62
2023/04/04 04:50:32;;;;;;;;;;;3.50;99.90;;;;;;4976828;28;20394;-61
2023/04/04 04:52:57;;;;;;;;;;;3.60;99.90;;;;;;4976795;28;19986;-63
2023/04/04 04:55:23;;;;;;;;;;;3.60;99.90;;;;;;4976908;28;20365;-62
2023/04/04 04:57:49;;;;;;;;;;;3.50;99.90;;;;;;4976887;28;20465;-63
2023/04/04 05:00:16;;;;;;;;;;;3.50;99.90;;;;;;4976628;28;20438;-63
2023/04/04 05:02:41;;;;;;;;;;;3.40;99.90;;;;;;4976447;28;20075;-61
2023/04/04 05:05:07;;;;;;;;;;;3.50;99.90;;;;;;4976457;28;20418;-60
2023/04/04 05:07:32;;;;;;;;;;;3.60;99.90;;;;;;4976393;28;20007;-63
2023/04/04 05:09:58;;;;;;;;;;;3.60;99.90;;;;;;4974898;28;19990;-62
2023/04/04 05:12:23;;;;;;;;;;;3.60;99.90;;;;;;4976041;28;20062;-62
2023/04/04 05:14:49;;;;;;;;;;;3.60;99.90;;;;;;4976424;28;19983;-63
2023/04/04 05:17:15;;;;;;;;;;;3.60;99.90;;;;;;4975795;28;19979;-61
2023/04/04 05:19:40;;;;;;;;;;;3.70;99.90;;;;;;4978084;28;19989;-61
2023/04/04 05:22:07;;;;;;;;;;;3.70;99.90;;;;;;4980529;28;20346;-61
2023/04/04 05:24:32;;;;;;;;;;;3.80;99.90;;;;;;4975620;28;19979;-62
2023/04/04 05:26:58;;;;;;;;;;;3.90;99.90;;;;;;4974902;28;20065;-62
2023/04/04 05:29:23;;;;;;;;;;;3.90;99.90;;;;;;4975321;28;19979;-61
2023/04/04 05:31:49;;;;;;;;;;;4.00;99.90;;;;;;4975121;28;19987;-62
2023/04/04 05:34:14;;;;;;;;;;;3.90;99.90;;;;;;4975637;28;20030;-62
2023/04/04 05:36:40;;;;;;;;;;;3.90;99.90;;;;;;4975889;28;20449;-63
2023/04/04 05:39:06;;;;;;;;;;;3.90;99.90;;;;;;4975532;28;19979;-61
2023/04/04 05:41:32;;;;;;;;;;;3.90;99.90;;;;;;4975571;28;19979;-64
2023/04/04 05:43:58;;;;;;;;;;;3.80;99.90;;;;;;4975822;28;19978;-63
2023/04/04 05:46:23;;;;;;;;;;;3.70;99.90;;;;;;4974792;28;20014;-64
2023/04/04 05:48:49;;;;;;;;;;;3.50;99.90;;;;;;4975027;28;19983;-61
2023/04/04 05:51:15;;;;;;;;;;;3.60;99.90;;;;;;4995042;28;19979;-61
2023/04/04 05:53:41;;;;;;;;;;;3.60;99.90;;;;;;4994132;28;19983;-63
2023/04/04 05:56:07;;;;;;;;;;;3.70;99.90;;;;;;4993401;28;20006;-61
2023/04/04 05:58:32;;;;;;;;;;;3.70;99.90;;;;;;4992922;28;20005;-63
2023/04/04 06:00:58;;;;;;;;;;;3.70;99.90;;;;;;4992270;28;20081;-62
2023/04/04 06:03:24;;;;;;;;;;;3.60;99.90;;;;;;4993619;28;19983;-62
2023/04/04 06:05:53;;;;;;;;;;;3.70;99.90;;;;;;4992105;28;20089;-62
2023/04/04 06:08:18;;;;;;;;;;;3.80;99.90;;;;;;4993701;28;20422;-61
2023/04/04 06:10:44;;;;;;;;;;;3.80;99.90;;;;;;4993011;28;20050;-62
2023/04/04 06:13:10;;;;;;;;;;;3.70;99.90;;;;;;4993976;28;20401;-61
2023/04/04 06:15:35;;;;;;;;;;;3.80;99.90;;;;;;4994422;28;19982;-61
2023/04/04 06:18:01;;;;;;;;;;;3.80;99.90;;;;;;4994290;28;20077;-64
2023/04/04 06:20:26;;;;;;;;;;;4.00;99.90;;;;;;4994192;28;19983;-64
2023/04/04 06:22:53;;;;;;;;;;;4.00;99.90;;;;;;4994253;28;20448;-62
2023/04/04 06:25:18;;;;;;;;;;;4.10;99.90;;;;;;4994332;28;19983;-64
2023/04/04 06:27:44;;;;;;;;;;;4.20;99.90;;;;;;4981996;28;20003;-64
2023/04/04 06:30:10;;;;;;;;;;;4.20;99.90;;;;;;4984621;28;19990;-61
2023/04/04 06:32:36;;;;;;;;;;;4.20;99.90;;;;;;4982342;28;19982;-64
2023/04/04 06:35:03;;;;;;;;;;;4.20;99.90;;;;;;4981610;28;19994;-62
2023/04/04 06:37:29;;;;;;;;;;;4.20;99.90;;;;;;4982216;28;19983;-62
2023/04/04 06:39:54;;;;;;;;;;;4.20;99.90;;;;;;4981184;28;19985;-61
2023/04/04 06:42:20;;;;;;;;;;;4.20;99.90;;;;;;4990761;28;19987;-65
2023/04/04 06:44:49;;;;;;;;;;;4.30;99.90;;;;;;4982449;28;19994;-62
2023/04/04 06:47:15;;;;;;;;;;;4.40;99.90;;;;;;4980517;28;20002;-63
2023/04/04 06:49:41;;;;;;;;;;;4.60;99.90;;;;;;4993000;28;19990;-63
2023/04/04 06:52:06;;;;;;;;;;;4.60;99.90;;;;;;4993748;28;19989;-65
2023/04/04 06:54:32;;;;;;;;;;;4.40;99.90;;;;;;4992808;28;19979;-64
2023/04/04 06:56:57;;;;;;;;;;;4.30;99.90;;;;;;4991212;28;20093;-64
2023/04/04 06:59:23;;;;;;;;;;;4.30;99.90;;;;;;4995423;28;19997;-62
2023/04/04 07:01:49;;;;;;;;;;;4.40;99.90;;;;;;4996884;28;19982;-64
2023/04/04 07:04:17;;;;;;;;;;;4.40;99.90;;;;;;4983234;28;19986;-65
2023/04/04 07:06:42;;;;;;;;;;;4.20;99.90;;;;;;4978379;28;20468;-65
2023/04/04 07:09:08;;;;;;;;;;;4.30;99.90;;;;;;4977509;28;19979;-64
2023/04/04 07:11:34;;;;;;;;;;;4.30;99.90;;;;;;4994510;28;20018;-64
2023/04/04 07:13:59;;;;;;;;;;;4.50;99.90;;;;;;4978575;28;19983;-62
2023/04/04 07:16:25;;;;;;;;;;;4.50;99.90;;;;;;4976446;28;20413;-63
2023/04/04 07:18:51;;;;;;;;;;;4.50;99.90;;;;;;4983073;28;20585;-64
2023/04/04 07:21:17;;;;;;;;;;;4.50;99.90;;;;;;4995145;28;19982;-65
2023/04/04 07:23:43;;;;;;;;;;;4.80;99.90;;;;;;4994332;28;20341;-65
2023/04/04 07:26:08;;;;;;;;;;;5.00;99.90;;;;;;4994434;28;20002;-65
2023/04/04 07:28:34;;;;;;;;;;;5.10;99.90;;;;;;4996424;28;20401;-68
2023/04/04 07:31:02;;;;;;;;;;;5.00;99.90;;;;;;4988112;28;20030;-67
2023/04/04 07:33:28;;;;;;;;;;;4.90;99.90;;;;;;4977783;28;19986;-65
2023/04/04 07:35:54;;;;;;;;;;;4.80;99.90;;;;;;4976706;28;19990;-63
2023/04/04 07:38:20;;;;;;;;;;;4.80;99.90;;;;;;4974993;28;20369;-63
2023/04/04 07:40:47;;;;;;;;;;;4.90;99.90;;;;;;4974978;28;19985;-62
2023/04/04 07:43:16;;;;;;;;;;;4.90;99.90;;;;;;4985477;28;19989;-67
2023/04/04 07:45:42;;;;;;;;;;;5.00;99.90;;;;;;4993781;28;19983;-64
2023/04/04 07:48:08;;;;;;;;;;;4.80;99.90;;;;;;4995764;28;20097;-60
2023/04/04 07:50:33;;;;;;;;;;;4.90;99.90;;;;;;4983917;28;20042;-64
2023/04/04 07:52:59;;;;;;;;;;;5.00;99.90;;;;;;4986835;28;19982;-66
2023/04/04 07:55:25;;;;;;;;;;;5.10;99.90;;;;;;4995188;28;20331;-64
2023/04/04 07:57:51;;;;;;;;;;;5.10;99.90;;;;;;4993436;28;20041;-69
2023/04/04 08:00:25;;;;;;;;;;;5.00;99.90;;;;;;4995757;28;20271;-64
2023/04/04 08:02:52;;;;;;;;;;;4.90;99.90;;;;;;4992477;28;19983;-66
2023/04/04 08:05:17;;;;;;;;;;;5.10;99.90;;;;;;4990870;28;20037;-62
2023/04/04 08:07:43;;;;;;;;;;;5.20;99.90;;;;;;4988316;28;20038;-61
2023/04/04 08:10:09;;;;;;;;;;;5.20;99.90;;;;;;4991445;28;20448;-62
2023/04/04 08:12:35;;;;;;;;;;;5.30;99.90;;;;;;4992063;28;20380;-61
2023/04/04 08:15:00;;;;;;;;;;;5.30;99.90;;;;;;4993534;28;20077;-62
2023/04/04 08:17:27;;;;;;;;;;;5.20;99.90;;;;;;4990990;28;19990;-60
2023/04/04 08:19:52;;;;;;;;;;;5.20;99.90;;;;;;4994813;28;20026;-63
2023/04/04 08:22:18;;;;;;;;;;;5.20;99.90;;;;;;4988211;28;20026;-63
2023/04/04 08:24:44;;;;;;;;;;;5.10;99.90;;;;;;4991833;28;19983;-63
2023/04/04 08:27:10;;;;;;;;;;;5.40;99.90;;;;;;4990108;28;20007;-63
2023/04/04 08:29:35;;;;;;;;;;;5.60;99.90;;;;;;4984903;28;19989;-63
2023/04/04 08:32:01;;;;;;;;;;;5.30;99.90;;;;;;4980723;28;20082;-62
2023/04/04 08:34:27;;;;;;;;;;;5.40;99.90;;;;;;4978012;28;20038;-66
2023/04/04 08:36:53;;;;;;;;;;;5.50;99.90;;;;;;4982926;28;19991;-62
2023/04/04 08:39:18;;;;;;;;;;;5.70;99.90;;;;;;4989858;28;19987;-65
2023/04/04 08:41:44;;;;;;;;;;;5.40;99.90;;;;;;4991604;28;20465;-63
2023/04/04 08:44:19;;;;;;;;;;;5.40;99.90;;;;;;4980179;28;20451;-64
2023/04/04 08:46:46;;;;;;;;;;;5.60;99.90;;;;;;4980697;28;20018;-65
2023/04/04 08:49:20;;;;;;;;;;;5.60;99.90;;;;;;4982090;28;19982;-64
2023/04/04 08:51:46;;;;;;;;;;;5.70;99.90;;;;;;4980736;28;20610;-65
2023/04/04 08:54:13;;;;;;;;;;;5.70;99.90;;;;;;4983502;28;19984;-67
2023/04/04 08:56:45;;;;;;;;;;;5.90;99.90;;;;;;4978084;28;19991;-63
2023/04/04 08:59:14;;;;;;;;;;;5.80;99.90;;;;;;5001988;28;20001;-66
2023/04/04 09:01:40;;;;;;;;;;;5.90;99.90;;;;;;4983807;28;20397;-62
2023/04/04 09:04:13;;;;;;;;;;;5.90;99.90;;;;;;4984275;28;20081;-62
2023/04/04 09:06:40;;;;;;;;;;;5.80;99.90;;;;;;4986073;28;19999;-62
2023/04/04 09:09:06;;;;;;;;;;;5.80;99.90;;;;;;4985419;28;20049;-64
2023/04/04 09:11:32;;;;;;;;;;;5.80;99.90;;;;;;4987029;28;20062;-63
2023/04/04 09:14:01;;;;;;;;;;;5.70;99.90;;;;;;4984408;28;19986;-64
2023/04/04 09:16:27;;;;;;;;;;;5.60;99.90;;;;;;4989687;28;19993;-61
2023/04/04 09:18:53;;;;;;;;;;;5.60;99.90;;;;;;4980782;28;20344;-64
2023/04/04 09:21:21;;;;;;;;;;;5.50;99.90;;;;;;5004294;28;20037;-64
2023/04/04 09:24:06;;;;;;;;;;;5.60;99.90;;;;;;4985370;28;19983;-62
2023/04/04 09:26:51;;;;;;;;;;;5.60;99.90;;;;;;4985724;28;20003;-63
2023/04/04 09:29:20;;;;;;;;;;;5.70;99.90;;;;;;4984651;28;19991;-62
2023/04/04 09:31:48;;;;;;;;;;;5.70;99.90;;;;;;4984737;28;19983;-62
2023/04/04 09:34:15;;;;;;;;;;;5.80;99.90;;;;;;4977541;28;19998;-63
2023/04/04 09:36:41;;;;;;;;;;;5.70;99.90;;;;;;4982634;28;19989;-64
2023/04/04 09:39:07;;;;;;;;;;;5.50;99.90;;;;;;4980989;28;19983;-67
2023/04/04 09:41:33;;;;;;;;;;;5.60;99.90;;;;;;4986070;28;19983;-63
2023/04/04 09:43:59;;;;;;;;;;;5.60;99.90;;;;;;4982172;28;20041;-66
2023/04/04 09:46:26;;;;;;;;;;;5.60;99.90;;;;;;4980623;28;20002;-64
2023/04/04 09:48:54;;;;;;;;;;;5.70;99.90;;;;;;4983083;28;19990;-66
2023/04/04 09:51:19;;;;;;;;;;;5.70;99.90;;;;;;4982538;28;19993;-65
2023/04/04 09:53:48;;;;;;;;;;;5.70;99.90;;;;;;4981275;28;20357;-64
2023/04/04 09:56:14;;;;;;;;;;;5.70;99.90;;;;;;4986682;28;20061;-68
2023/04/04 09:58:45;;;;;;;;;;;5.70;99.90;;;;;;4988833;28;20081;-68
2023/04/04 10:01:11;;;;;;;;;;;5.80;99.90;;;;;;4986388;28;20065;-64
2023/04/04 10:03:38;;;;;;;;;;;5.70;99.90;;;;;;4982715;28;20390;-67
2023/04/04 10:06:04;;;;;;;;;;;5.50;99.90;;;;;;4978150;28;19979;-62
2023/04/04 10:08:34;;;;;;;;;;;5.60;99.90;;;;;;4982011;28;20356;-66
2023/04/04 10:11:07;;;;;;;;;;;5.80;99.90;;;;;;4979468;28;19998;-63
2023/04/04 10:13:35;;;;;;;;;;;5.80;99.90;;;;;;4980525;28;20458;-67
2023/04/04 10:16:02;;;;;;;;;;;5.90;99.90;;;;;;4986542;28;20049;-66
2023/04/04 10:18:29;;;;;;;;;;;6.20;99.90;;;;;;4985543;28;19983;-68
2023/04/04 10:20:59;;;;;;;;;;;6.20;99.90;;;;;;4987588;28;19983;-67
2023/04/04 10:23:27;;;;;;;;;;;6.20;99.90;;;;;;4979629;28;20022;-68
2023/04/04 10:25:53;;;;;;;;;;;6.40;99.90;;;;;;4982594;28;19990;-64
2023/04/04 10:28:20;;;;;;;;;;;6.50;99.90;;;;;;4992130;28;20041;-67
2023/04/04 10:30:51;;;;;;;;;;;6.50;99.90;;;;;;4988230;28;20045;-65
2023/04/04 10:33:29;;;;;;;;;;;6.50;99.90;;;;;;4985145;28;19991;-65
2023/04/04 10:35:57;;;;;;;;;;;6.50;99.90;;;;;;4990431;28;20065;-62
2023/04/04 10:38:27;;;;;;;;;;;6.50;99.90;;;;;;4990337;28;19986;-61
2023/04/04 10:40:55;;;;;;;;;;;6.40;99.90;;;;;;4990661;28;20430;-61
2023/04/04 10:43:23;;;;;;;;;;;6.10;99.90;;;;;;4990007;28;19987;-64
2023/04/04 10:45:49;;;;;;;;;;;6.00;99.90;;;;;;4991969;28;19990;-63
2023/04/04 10:48:15;;;;;;;;;;;5.90;99.90;;;;;;4988576;28;20007;-64
2023/04/04 10:50:41;;;;;;;;;;;5.80;99.90;;;;;;4982487;28;20358;-65
2023/04/04 10:53:07;;;;;;;;;;;5.80;99.90;;;;;;4981804;28;19993;-64
2023/04/04 10:55:34;;;;;;;;;;;5.90;99.90;;;;;;4984446;28;20365;-65
2023/04/04 10:58:00;;;;;;;;;;;6.00;99.90;;;;;;4989667;28;20332;-71
2023/04/04 11:00:26;;;;;;;;;;;5.90;99.90;;;;;;4980965;28;19987;-63
2023/04/04 11:02:51;;;;;;;;;;;6.00;99.90;;;;;;4989127;28;19987;-63
2023/04/04 11:05:25;;;;;;;;;;;5.80;99.90;;;;;;4991327;28;20440;-62
2023/04/04 11:08:03;;;;;;;;;;;5.60;99.90;;;;;;4990916;28;20010;-63
2023/04/04 11:10:29;;;;;;;;;;;5.60;99.90;;;;;;4983726;28;19983;-62
2023/04/04 11:12:56;;;;;;;;;;;5.60;99.90;;;;;;4989748;28;20022;-61
2023/04/04 11:15:23;;;;;;;;;;;5.60;99.90;;;;;;4983240;28;20022;-60
2023/04/04 11:17:51;;;;;;;;;;;5.30;99.90;;;;;;4983166;28;19986;-67
2023/04/04 11:20:18;;;;;;;;;;;5.20;99.90;;;;;;4989290;28;20074;-66
2023/04/04 11:22:44;;;;;;;;;;;5.20;99.90;;;;;;4983064;28;20029;-63
2023/04/04 11:25:29;;;;;;;;;;;5.00;99.90;;;;;;4986012;28;20420;-63
2023/04/04 11:27:55;;;;;;;;;;;4.90;99.90;;;;;;4984028;28;20010;-64
2023/04/04 11:30:21;;;;;;;;;;;5.00;99.90;;;;;;4986342;28;19983;-63
2023/04/04 11:32:50;;;;;;;;;;;5.20;99.90;;;;;;4983984;28;19982;-64
2023/04/04 11:35:16;;;;;;;;;;;5.40;99.90;;;;;;4979137;28;19987;-64
2023/04/04 11:37:43;;;;;;;;;;;5.40;99.90;;;;;;4982610;28;19982;-64
2023/04/04 11:40:11;;;;;;;;;;;5.60;99.90;;;;;;4984464;28;20033;-65
2023/04/04 11:42:38;;;;;;;;;;;5.70;99.90;;;;;;4979796;28;19990;-64
2023/04/04 11:45:05;;;;;;;;;;;6.00;99.90;;;;;;4985020;28;20066;-64
2023/04/04 11:47:31;;;;;;;;;;;6.10;99.90;;;;;;4982864;28;20025;-68
2023/04/04 11:50:03;;;;;;;;;;;6.10;99.90;;;;;;5011837;28;20500;-65
2023/04/04 11:52:33;;;;;;;;;;;6.00;99.90;;;;;;4993959;28;19987;-61
2023/04/04 11:54:59;;;;;;;;;;;5.90;99.90;;;;;;4991664;28;20041;-65
2023/04/04 11:57:26;;;;;;;;;;;6.10;99.90;;;;;;4988017;28;19987;-63
2023/04/04 11:59:51;;;;;;;;;;;6.20;99.90;;;;;;4986143;28;20040;-64
2023/04/04 12:02:30;;;;;;;;;;;6.40;99.90;;;;;;4998945;28;20077;-62
2023/04/04 12:04:56;;;;;;;;;;;6.40;99.90;;;;;;4995821;28;20053;-64
2023/04/04 12:07:23;;;;;;;;;;;6.60;99.90;;;;;;5008936;28;20006;-63
2023/04/04 12:09:49;;;;;;;;;;;6.50;99.90;;;;;;4998039;28;20077;-63
2023/04/04 12:12:15;;;;;;;;;;;6.50;99.90;;;;;;4991390;28;20068;-65
2023/04/04 12:14:41;;;;;;;;;;;6.50;99.90;;;;;;4988038;28;19978;-63
2023/04/04 12:17:06;;;;;;;;;;;6.30;99.90;;;;;;4980888;28;19991;-64
2023/04/04 12:19:35;;;;;;;;;;;6.30;99.90;;;;;;4981707;28;20338;-64
2023/04/04 12:22:01;;;;;;;;;;;6.20;99.90;;;;;;4986819;28;19983;-63
2023/04/04 12:24:27;;;;;;;;;;;6.20;99.90;;;;;;4980782;28;20529;-62
2023/04/04 12:26:53;;;;;;;;;;;6.20;99.90;;;;;;4983571;28;20468;-64
2023/04/04 12:29:20;;;;;;;;;;;6.30;99.90;;;;;;4980277;28;19983;-63
2023/04/04 12:31:47;;;;;;;;;;;6.10;99.90;;;;;;4975864;28;19994;-64
2023/04/04 12:34:22;;;;;;;;;;;6.00;99.90;;;;;;4974797;28;19979;-64
2023/04/04 12:36:51;;;;;;;;;;;6.00;99.90;;;;;;4979356;28;20026;-64
2023/04/04 12:39:18;;;;;;;;;;;6.10;99.90;;;;;;4980340;28;19991;-62
2023/04/04 12:41:53;;;;;;;;;;;6.20;99.90;;;;;;4993507;28;19978;-64
2023/04/04 12:44:29;;;;;;;;;;;6.10;99.90;;;;;;4975587;28;19982;-62
2023/04/04 12:46:58;;;;;;;;;;;6.10;99.90;;;;;;4985019;28;20097;-63
2023/04/04 12:49:27;;;;;;;;;;;6.20;99.90;;;;;;4986050;28;19993;-62
2023/04/04 12:51:53;;;;;;;;;;;6.30;99.90;;;;;;4992374;28;20073;-64
2023/04/04 12:54:25;;;;;;;;;;;6.00;99.90;;;;;;4992752;28;20074;-63
2023/04/04 12:56:56;;;;;;;;;;;6.00;99.90;;;;;;4993041;28;20489;-63
2023/04/04 12:59:22;;;;;;;;;;;6.10;99.90;;;;;;4990878;28;20537;-62
2023/04/04 13:01:47;;;;;;;;;;;6.10;99.90;;;;;;4992456;28;19989;-64
2023/04/04 13:04:16;;;;;;;;;;;5.90;99.90;;;;;;4993530;28;19998;-64
2023/04/04 13:06:47;;;;;;;;;;;5.90;99.90;;;;;;4991389;28;20060;-63
2023/04/04 13:09:19;;;;;;;;;;;6.00;99.90;;;;;;4992215;28;19999;-62
2023/04/04 13:12:00;;;;;;;;;;;6.10;99.90;;;;;;4993310;28;20014;-63
2023/04/04 13:14:27;;;;;;;;;;;6.20;99.90;;;;;;4994355;28;19986;-63
2023/04/04 13:17:04;;;;;;;;;;;6.30;99.90;;;;;;4994779;28;19987;-61
2023/04/04 13:19:30;;;;;;;;;;;6.20;99.90;;;;;;4995056;28;20005;-63
2023/04/04 13:21:55;;;;;;;;;;;6.20;99.90;;;;;;4995361;28;19982;-63
2023/04/04 13:24:21;;;;;;;;;;;6.20;99.90;;;;;;4995572;28;20033;-63
2023/04/04 13:26:46;;;;;;;;;;;6.20;99.90;;;;;;4995379;28;20006;-63
2023/04/04 13:29:12;;;;;;;;;;;6.30;99.90;;;;;;4995702;28;20018;-62
2023/04/04 13:31:38;;;;;;;;;;;6.30;99.90;;;;;;4995518;28;20429;-62
2023/04/04 13:34:04;;;;;;;;;;;6.20;99.90;;;;;;4995380;28;19978;-62
2023/04/04 13:36:30;;;;;;;;;;;6.20;99.90;;;;;;4995373;28;19978;-63
2023/04/04 13:38:56;;;;;;;;;;;6.30;99.90;;;;;;4995781;28;20038;-61
2023/04/04 13:41:21;;;;;;;;;;;6.50;99.90;;;;;;4995358;28;19979;-64
2023/04/04 13:43:47;;;;;;;;;;;6.60;99.90;;;;;;4995173;28;20491;-63
2023/04/04 13:46:12;;;;;;;;;;;6.70;99.90;;;;;;4995425;28;19982;-62
2023/04/04 13:48:38;;;;;;;;;;;6.80;99.90;;;;;;4995151;28;20441;-62
2023/04/04 13:51:03;;;;;;;;;;;6.70;99.90;;;;;;4995012;28;20450;-63
2023/04/04 13:53:29;;;;;;;;;;;6.60;99.90;;;;;;4995057;28;20121;-63
2023/04/04 13:55:55;;;;;;;;;;;6.40;99.90;;;;;;4995234;28;20037;-61
2023/04/04 13:58:20;;;;;;;;;;;6.40;99.90;;;;;;4993658;28;19990;-62
2023/04/04 14:00:47;;;;;;;;;;;6.40;99.90;;;;;;4995085;28;19983;-64
2023/04/04 14:03:13;;;;;;;;;;;6.40;99.90;;;;;;4995000;28;20006;-62
2023/04/04 14:05:38;;;;;;;;;;;6.40;99.90;;;;;;4995082;28;20481;-62
2023/04/04 14:08:04;;;;;;;;;;;6.40;99.90;;;;;;4994375;28;20012;-64
2023/04/04 14:10:30;;;;;;;;;;;6.40;99.90;;;;;;4994776;28;19982;-62
2023/04/04 14:12:55;;;;;;;;;;;6.50;99.90;;;;;;4994618;28;20014;-63
2023/04/04 14:15:23;;;;;;;;;;;6.40;99.90;;;;;;4994684;28;19979;-62
2023/04/04 14:17:48;;;;;;;;;;;6.20;99.90;;;;;;4994565;28;19979;-62
2023/04/04 14:20:14;;;;;;;;;;;6.10;99.90;;;;;;4994642;28;19990;-63
2023/04/04 14:22:39;;;;;;;;;;;6.20;99.90;;;;;;4994517;28;19983;-63
2023/04/04 14:25:06;;;;;;;;;;;6.20;99.90;;;;;;4994663;28;20066;-62
2023/04/04 14:27:31;;;;;;;;;;;6.10;99.90;;;;;;4994734;28;20029;-59
2023/04/04 14:29:57;;;;;;;;;;;6.10;99.90;;;;;;4994377;28;19979;-62
2023/04/04 14:32:23;;;;;;;;;;;6.00;99.90;;;;;;4994578;28;19989;-61
2023/04/04 14:34:49;;;;;;;;;;;6.00;99.90;;;;;;4994400;28;19982;-62
2023/04/04 14:37:15;;;;;;;;;;;6.00;99.90;;;;;;4994339;28;19979;-61
2023/04/04 14:39:41;;;;;;;;;;;6.10;99.90;;;;;;4994419;28;19986;-61
2023/04/04 14:42:07;;;;;;;;;;;6.20;99.90;;;;;;4994330;28;19986;-61
2023/04/04 14:44:32;;;;;;;;;;;6.20;99.90;;;;;;4994276;28;19978;-59
2023/04/04 14:46:58;;;;;;;;;;;6.20;99.90;;;;;;4994018;28;20377;-60
2023/04/04 14:49:23;;;;;;;;;;;6.30;99.90;;;;;;4994239;28;20025;-63